Time;durP1;ratioP1;P1;durP2;ratioP2;P2;SDS_P1;SDS_P2;PMS_P1;PMS_P2;Temp;Humidity;BMP_temperature;BMP_pressure;BME280_temperature;BME280_humidity;BME280_pressure;Samples;Min_cycle;Max_cycle;Signal;HPM_P1;HPM_P2
2021/06/01 00:00:29;;;;;;;3.15;1.25;;;7.40;99.90;;;;;;5117479;28;20035;-63
2021/06/01 00:02:57;;;;;;;2.65;1.25;;;7.50;99.90;;;;;;5095441;28;20516;-63
2021/06/01 00:05:24;;;;;;;3.13;1.38;;;7.50;99.90;;;;;;5096177;28;20040;-64
2021/06/01 00:07:52;;;;;;;3.15;1.20;;;7.50;99.90;;;;;;5096208;28;20020;-63
2021/06/01 00:10:20;;;;;;;3.25;1.30;;;7.50;99.90;;;;;;5096170;28;20020;-63
2021/06/01 00:12:48;;;;;;;3.08;1.48;;;7.50;99.90;;;;;;5096385;28;20351;-63
2021/06/01 00:15:16;;;;;;;3.28;1.17;;;7.50;99.90;;;;;;5096483;28;20454;-63
2021/06/01 00:17:43;;;;;;;3.38;1.63;;;7.50;99.90;;;;;;5097322;28;20035;-63
2021/06/01 00:20:11;;;;;;;4.97;1.08;;;7.50;99.90;;;;;;5099535;28;20035;-63
2021/06/01 00:22:38;;;;;;;3.58;1.10;;;7.50;99.90;;;;;;5100149;28;20066;-63
2021/06/01 00:25:07;;;;;;;4.47;1.05;;;7.50;99.90;;;;;;5100703;28;20031;-63
2021/06/01 00:27:34;;;;;;;2.55;1.35;;;7.40;99.90;;;;;;5100986;28;20147;-63
2021/06/01 00:30:03;;;;;;;2.92;1.05;;;7.30;99.90;;;;;;5101045;28;20027;-63
2021/06/01 00:32:31;;;;;;;4.30;1.13;;;7.30;99.90;;;;;;5100906;28;20020;-63
2021/06/01 00:34:59;;;;;;;2.85;1.30;;;7.10;99.90;;;;;;5100695;28;20032;-63
2021/06/01 00:37:26;;;;;;;4.75;1.23;;;7.00;99.90;;;;;;5100589;28;20032;-63
2021/06/01 00:39:54;;;;;;;2.05;1.08;;;6.90;99.90;;;;;;5099599;28;20024;-63
2021/06/01 00:42:21;;;;;;;3.47;1.10;;;6.90;99.90;;;;;;5100552;28;20027;-63
2021/06/01 00:44:50;;;;;;;4.82;1.35;;;6.90;99.90;;;;;;5099144;28;20034;-63
2021/06/01 00:47:18;;;;;;;2.55;1.20;;;6.90;99.90;;;;;;5099533;28;20020;-63
2021/06/01 00:49:45;;;;;;;2.88;1.25;;;6.90;99.90;;;;;;5098462;28;20030;-63
2021/06/01 00:52:13;;;;;;;2.88;1.15;;;6.80;99.90;;;;;;5099382;28;20016;-63
2021/06/01 00:54:41;;;;;;;2.95;1.40;;;6.80;99.90;;;;;;5098378;28;20040;-63
2021/06/01 00:57:08;;;;;;;3.03;1.33;;;6.80;99.90;;;;;;5099924;28;20044;-63
2021/06/01 00:59:36;;;;;;;3.47;1.20;;;6.80;99.90;;;;;;5099513;28;20020;-63
2021/06/01 01:02:05;;;;;;;2.38;1.20;;;6.80;99.90;;;;;;5114949;28;20127;-63
2021/06/01 01:04:34;;;;;;;2.95;1.00;;;6.80;99.90;;;;;;5099381;28;20382;-63
2021/06/01 01:07:21;;;;;;;1.75;0.88;;;6.70;99.90;;;;;;5100038;28;20103;-63
2021/06/01 01:09:50;;;;;;;2.20;1.08;;;6.60;99.90;;;;;;5099924;28;20024;-63
2021/06/01 01:12:57;;;;;;;3.05;1.30;;;6.50;99.90;;;;;;5099802;28;20362;-63
2021/06/01 01:15:25;;;;;;;3.10;1.60;;;6.50;99.90;;;;;;5081789;28;20028;-63
2021/06/01 01:18:15;;;;;;;2.70;1.20;;;6.50;99.90;;;;;;5100006;28;20088;-63
2021/06/01 01:21:07;;;;;;;2.67;1.42;;;6.50;99.90;;;;;;5099711;28;20024;-61
2021/06/01 01:23:38;;;;;;;3.22;1.40;;;6.50;99.90;;;;;;5100122;28;20362;-63
2021/06/01 01:26:09;;;;;;;1.65;0.98;;;6.60;99.90;;;;;;5098551;28;20020;-63
2021/06/01 01:29:24;;;;;;;2.63;1.20;;;6.50;99.90;;;;;;5098209;28;20396;-63
2021/06/01 01:32:04;;;;;;;3.38;1.25;;;6.50;99.90;;;;;;4997789;28;20058;-63
2021/06/01 01:34:33;;;;;;;2.83;1.27;;;6.50;99.90;;;;;;5097276;28;20032;-63
2021/06/01 01:37:02;;;;;;;2.72;1.40;;;6.50;99.90;;;;;;5098606;28;20028;-63
2021/06/01 01:39:38;;;;;;;2.55;1.20;;;6.40;99.90;;;;;;5099443;28;20278;-63
2021/06/01 01:42:11;;;;;;;3.92;1.58;;;6.30;99.90;;;;;;5098702;28;20055;-63
2021/06/01 01:44:48;;;;;;;5.90;1.13;;;6.30;99.90;;;;;;5098872;28;20028;-63
2021/06/01 01:50:11;;;;;;;2.33;1.27;;;6.20;99.90;;;;;;5099242;28;20395;-63
2021/06/01 01:52:40;;;;;;;2.10;1.25;;;6.10;99.90;;;;;;5098984;28;20044;-63
2021/06/01 01:55:11;;;;;;;2.95;1.80;;;6.00;99.90;;;;;;5098988;28;20324;-63
2021/06/01 01:57:51;;;;;;;2.33;1.25;;;6.00;99.90;;;;;;5098987;28;20379;-63
2021/06/01 02:00:22;;;;;;;3.42;1.58;;;6.00;99.90;;;;;;5080951;28;20024;-63
2021/06/01 02:02:51;;;;;;;3.05;1.80;;;6.00;99.90;;;;;;5098810;28;20123;-63
2021/06/01 02:05:19;;;;;;;2.55;1.10;;;6.00;99.90;;;;;;5080998;28;20028;-63
2021/06/01 02:07:46;;;;;;;2.35;1.08;;;6.00;99.90;;;;;;5098205;28;20021;-63
2021/06/01 02:10:15;;;;;;;1.95;1.05;;;6.00;99.90;;;;;;5097827;28;20016;-63
2021/06/01 02:12:43;;;;;;;2.17;1.05;;;6.00;99.90;;;;;;5098812;28;20024;-63
2021/06/01 02:15:11;;;;;;;2.35;1.13;;;5.90;99.90;;;;;;5097625;28;20031;-63
2021/06/01 02:17:39;;;;;;;3.20;1.50;;;5.90;99.90;;;;;;5079877;28;20072;-63
2021/06/01 02:20:08;;;;;;;4.13;1.15;;;5.90;99.90;;;;;;5080364;28;20024;-63
2021/06/01 02:25:24;;;;;;;2.03;1.20;;;5.80;99.90;;;;;;5097547;28;20032;-63
2021/06/01 02:28:27;;;;;;;2.22;1.27;;;5.80;99.90;;;;;;5098135;28;20313;-63
2021/06/01 02:31:05;;;;;;;2.50;1.40;;;5.80;99.90;;;;;;5085263;28;20032;-63
2021/06/01 02:33:36;;;;;;;2.85;1.33;;;5.70;99.90;;;;;;5098586;28;20297;-63
2021/06/01 02:36:05;;;;;;;3.78;1.30;;;5.70;99.90;;;;;;5098233;28;20024;-63
2021/06/01 02:38:34;;;;;;;4.57;1.58;;;5.70;99.90;;;;;;5098580;28;20476;-63
2021/06/01 02:41:05;;;;;;;5.53;2.15;;;5.60;99.90;;;;;;5097945;28;20020;-63
2021/06/01 02:43:33;;;;;;;3.05;1.55;;;5.60;99.90;;;;;;5098213;28;20039;-63
2021/06/01 02:46:01;;;;;;;3.08;1.00;;;5.50;99.90;;;;;;5098124;28;20099;-63
2021/06/01 02:48:29;;;;;;;2.72;1.15;;;5.50;99.90;;;;;;5097295;28;20020;-63
2021/06/01 02:51:14;;;;;;;2.08;1.02;;;5.40;99.90;;;;;;5097357;28;20024;-63
2021/06/01 02:53:53;;;;;;;2.58;1.15;;;5.30;99.90;;;;;;5096827;28;20035;-63
2021/06/01 02:56:22;;;;;;;2.25;1.30;;;5.30;99.90;;;;;;5079032;28;20101;-63
2021/06/01 02:58:51;;;;;;;5.40;1.00;;;5.30;99.90;;;;;;5097123;28;20058;-63
2021/06/01 03:01:21;;;;;;;2.28;1.10;;;5.30;99.90;;;;;;5096810;28;20070;-63
2021/06/01 03:03:51;;;;;;;3.15;1.55;;;5.20;99.90;;;;;;5097097;28;20030;-63
2021/06/01 03:06:30;;;;;;;6.25;1.60;;;5.30;99.90;;;;;;5096811;28;20039;-63
2021/06/01 03:08:59;;;;;;;5.90;1.48;;;5.30;99.90;;;;;;5096634;28;20032;-63
2021/06/01 03:11:26;;;;;;;3.22;1.15;;;5.30;99.90;;;;;;5097621;28;20048;-63
2021/06/01 03:13:54;;;;;;;5.20;1.30;;;5.30;99.90;;;;;;5079712;28;20448;-63
2021/06/01 03:16:21;;;;;;;4.45;1.92;;;5.30;99.90;;;;;;5079737;28;20046;-63
2021/06/01 03:18:49;;;;;;;2.25;1.27;;;5.30;99.90;;;;;;5097703;28;20031;-63
2021/06/01 03:21:17;;;;;;;2.05;1.10;;;5.30;99.90;;;;;;5097494;28;20027;-63
2021/06/01 03:23:46;;;;;;;2.30;1.30;;;5.20;99.90;;;;;;5097778;28;20016;-63
2021/06/01 03:26:14;;;;;;;2.67;1.58;;;5.20;99.90;;;;;;5097513;28;20024;-64
2021/06/01 03:28:42;;;;;;;3.42;1.30;;;5.10;99.90;;;;;;5096901;28;20029;-63
2021/06/01 03:31:11;;;;;;;2.50;1.42;;;5.00;99.90;;;;;;5096535;28;20016;-63
2021/06/01 03:33:39;;;;;;;2.95;1.23;;;5.00;99.90;;;;;;5078991;28;20070;-63
2021/06/01 03:36:06;;;;;;;3.67;1.67;;;5.00;99.90;;;;;;5096479;28;20021;-63
2021/06/01 03:38:38;;;;;;;3.58;1.50;;;5.00;99.90;;;;;;5096546;28;20459;-63
2021/06/01 03:41:06;;;;;;;3.17;1.30;;;5.10;99.90;;;;;;5096391;28;20035;-63
2021/06/01 03:43:35;;;;;;;2.15;1.15;;;5.10;99.90;;;;;;5096696;28;20020;-63
2021/06/01 03:46:03;;;;;;;3.25;1.58;;;5.10;99.90;;;;;;5096410;28;20110;-63
2021/06/01 03:48:30;;;;;;;3.03;1.83;;;5.10;99.90;;;;;;5096352;28;20432;-63
2021/06/01 03:50:59;;;;;;;3.85;1.30;;;5.10;99.90;;;;;;5097465;28;20087;-63
2021/06/01 03:53:30;;;;;;;5.18;1.27;;;5.10;99.90;;;;;;5099840;28;20020;-63
2021/06/01 03:55:58;;;;;;;2.33;1.38;;;5.20;99.90;;;;;;5101464;28;20449;-63
2021/06/01 03:58:26;;;;;;;3.40;1.80;;;5.20;99.90;;;;;;5101372;28;20024;-63
2021/06/01 04:00:56;;;;;;;2.67;1.42;;;5.20;99.90;;;;;;5101313;28;20066;-63
2021/06/01 04:03:24;;;;;;;2.75;1.58;;;5.30;99.90;;;;;;5101954;28;20024;-63
2021/06/01 04:05:52;;;;;;;4.82;1.40;;;5.30;99.90;;;;;;5101481;28;20031;-63
2021/06/01 04:08:19;;;;;;;2.40;1.40;;;5.40;99.90;;;;;;5101387;28;20074;-63
2021/06/01 04:10:47;;;;;;;4.10;1.58;;;5.40;99.90;;;;;;5082508;28;20090;-63
2021/06/01 04:13:14;;;;;;;4.55;1.20;;;5.50;99.90;;;;;;5082414;28;20024;-63
2021/06/01 04:15:41;;;;;;;2.78;1.50;;;5.50;99.90;;;;;;5082766;28;20038;-63
2021/06/01 04:18:10;;;;;;;3.88;1.60;;;5.50;99.90;;;;;;5082356;28;20348;-63
2021/06/01 04:20:38;;;;;;;2.65;1.20;;;5.60;99.90;;;;;;5100059;28;20384;-63
2021/06/01 04:23:06;;;;;;;4.43;1.30;;;5.60;99.90;;;;;;5099947;28;20047;-63
2021/06/01 04:25:33;;;;;;;2.05;1.10;;;5.60;99.90;;;;;;5099972;28;20081;-63
2021/06/01 04:28:01;;;;;;;2.70;1.40;;;5.70;99.90;;;;;;5083215;28;20296;-63
2021/06/01 04:30:29;;;;;;;2.70;1.20;;;5.70;99.90;;;;;;5100311;28;20289;-63
2021/06/01 04:32:56;;;;;;;2.28;1.33;;;5.70;99.90;;;;;;5101102;28;20020;-63
2021/06/01 04:35:25;;;;;;;4.57;1.42;;;5.80;99.90;;;;;;5082865;28;20085;-64
2021/06/01 04:37:54;;;;;;;3.78;1.25;;;5.80;99.90;;;;;;5100831;28;20031;-64
2021/06/01 04:40:21;;;;;;;4.32;1.70;;;5.80;99.90;;;;;;5100590;28;20024;-63
2021/06/01 04:42:50;;;;;;;4.38;1.60;;;5.90;99.90;;;;;;5083070;28;20031;-64
2021/06/01 04:45:18;;;;;;;4.50;1.60;;;5.90;99.90;;;;;;5100399;28;20024;-64
2021/06/01 04:47:45;;;;;;;5.35;1.48;;;6.00;99.90;;;;;;5100475;28;20034;-64
2021/06/01 04:50:12;;;;;;;3.55;1.23;;;6.10;99.90;;;;;;5082128;28;20027;-64
2021/06/01 04:52:40;;;;;;;5.88;2.17;;;6.20;99.90;;;;;;5081951;28;20103;-64
2021/06/01 04:55:10;;;;;;;3.55;1.63;;;6.30;99.90;;;;;;5099211;28;20027;-66
2021/06/01 04:57:39;;;;;;;3.50;1.38;;;6.50;99.90;;;;;;5099629;28;20308;-66
2021/06/01 05:00:09;;;;;;;2.97;1.48;;;6.60;99.90;;;;;;5099230;28;20020;-66
2021/06/01 05:02:37;;;;;;;4.38;1.58;;;6.70;99.90;;;;;;5098976;28;20033;-65
2021/06/01 05:05:07;;;;;;;4.55;1.70;;;6.80;99.90;;;;;;5098889;28;20056;-66
2021/06/01 05:07:34;;;;;;;6.57;1.92;;;7.00;99.90;;;;;;5099139;28;20024;-66
2021/06/01 05:10:03;;;;;;;5.90;1.77;;;7.10;99.90;;;;;;5064679;28;20042;-67
2021/06/01 05:12:31;;;;;;;10.63;2.97;;;7.20;99.90;;;;;;5099513;28;20054;-65
2021/06/01 05:14:59;;;;;;;4.50;1.73;;;7.30;99.90;;;;;;5099874;28;20024;-66
2021/06/01 05:17:28;;;;;;;4.57;1.33;;;7.50;99.90;;;;;;5099834;28;20035;-64
2021/06/01 05:19:55;;;;;;;4.00;1.90;;;7.60;99.90;;;;;;5081911;28;20031;-64
2021/06/01 05:22:23;;;;;;;3.47;2.00;;;7.70;99.90;;;;;;5099739;28;20115;-64
2021/06/01 05:24:50;;;;;;;8.15;2.00;;;7.80;99.90;;;;;;5100030;28;20031;-64
2021/06/01 05:27:19;;;;;;;9.32;1.90;;;8.00;99.90;;;;;;5100354;28;20111;-66
2021/06/01 05:29:52;;;;;;;2.83;1.63;;;8.10;99.90;;;;;;5099656;28;20386;-66
2021/06/01 05:35:03;;;;;;;5.95;2.13;;;8.40;99.90;;;;;;5098400;28;20359;-67
2021/06/01 05:37:36;;;;;;;4.20;1.50;;;8.60;99.90;;;;;;5098331;28;20031;-67
2021/06/01 05:40:06;;;;;;;2.75;1.55;;;8.70;99.90;;;;;;5098443;28;20066;-66
2021/06/01 05:42:33;;;;;;;3.65;1.50;;;8.90;99.90;;;;;;5099051;28;20020;-68
2021/06/01 05:45:00;;;;;;;4.53;1.75;;;9.00;99.90;;;;;;5098475;28;20020;-64
2021/06/01 05:47:28;;;;;;;2.65;1.65;;;9.10;99.90;;;;;;5098865;28;20024;-64
2021/06/01 05:49:55;;;;;;;3.35;1.40;;;9.20;99.90;;;;;;5098845;28;20032;-66
2021/06/01 05:52:22;;;;;;;4.10;1.58;;;9.30;99.90;;;;;;5098117;28;20064;-64
2021/06/01 05:54:50;;;;;;;3.22;1.75;;;9.40;99.90;;;;;;5098820;28;20024;-62
2021/06/01 05:57:18;;;;;;;6.07;1.52;;;9.50;99.90;;;;;;5099106;28;20012;-62
2021/06/01 05:59:46;;;;;;;3.83;1.52;;;9.60;99.90;;;;;;5064416;28;20357;-62
2021/06/01 06:02:13;;;;;;;4.07;2.10;;;9.70;99.90;;;;;;5098887;28;20032;-62
2021/06/01 06:04:41;;;;;;;2.40;1.20;;;9.70;99.90;;;;;;5098920;28;20028;-63
2021/06/01 06:07:09;;;;;;;8.20;2.00;;;9.80;99.90;;;;;;5098961;28;20031;-62
2021/06/01 06:09:37;;;;;;;4.20;1.92;;;9.90;99.90;;;;;;5098683;28;20040;-61
2021/06/01 06:12:05;;;;;;;4.35;1.50;;;10.10;99.90;;;;;;5099305;28;20408;-63
2021/06/01 06:14:33;;;;;;;3.58;1.50;;;10.20;99.90;;;;;;5097700;28;20419;-63
2021/06/01 06:17:45;;;;;;;7.80;1.85;;;10.30;99.90;;;;;;5097441;28;20016;-63
2021/06/01 06:20:14;;;;;;;8.27;1.90;;;10.40;99.90;;;;;;5097748;28;20016;-63
2021/06/01 06:22:43;;;;;;;6.18;2.40;;;10.60;99.90;;;;;;5097649;28;20471;-63
2021/06/01 06:25:12;;;;;;;4.47;1.52;;;10.70;99.90;;;;;;5097739;28;20458;-63
2021/06/01 06:27:40;;;;;;;5.28;1.75;;;10.80;99.90;;;;;;5080016;28;20024;-63
2021/06/01 06:30:10;;;;;;;4.10;1.50;;;10.90;99.90;;;;;;5097680;28;20024;-62
2021/06/01 06:32:38;;;;;;;4.63;1.45;;;11.10;99.90;;;;;;5097492;28;20365;-62
2021/06/01 06:35:07;;;;;;;4.65;1.98;;;11.20;99.90;;;;;;5097766;28;20032;-62
2021/06/01 06:37:36;;;;;;;4.32;1.67;;;11.30;99.90;;;;;;5098729;28;20297;-62
2021/06/01 06:40:05;;;;;;;5.75;1.90;;;11.40;99.90;;;;;;5098423;28;20093;-62
2021/06/01 06:42:33;;;;;;;3.45;1.65;;;11.50;99.90;;;;;;5098301;28;20319;-62
2021/06/01 06:45:01;;;;;;;2.80;1.38;;;11.60;99.90;;;;;;5098414;28;20145;-62
2021/06/01 06:47:44;;;;;;;4.57;1.80;;;11.70;99.90;;;;;;5080199;28;20336;-63
2021/06/01 06:50:14;;;;;;;1.92;1.27;;;11.90;99.90;;;;;;5082250;28;20362;-61
2021/06/01 06:52:42;;;;;;;4.35;1.52;;;12.00;99.90;;;;;;5098249;28;20408;-62
2021/06/01 06:55:12;;;;;;;4.10;1.33;;;12.10;99.90;;;;;;5079166;28;20340;-62
2021/06/01 06:57:41;;;;;;;3.00;1.30;;;12.30;99.90;;;;;;5097274;28;20365;-63
2021/06/01 07:00:26;;;;;;;2.60;1.10;;;12.40;99.90;;;;;;5096765;28;20016;-63
2021/06/01 07:02:54;;;;;;;2.60;1.45;;;12.60;99.90;;;;;;5063367;28;20047;-62
2021/06/01 07:05:22;;;;;;;2.85;1.52;;;12.70;99.90;;;;;;5076600;28;20025;-63
2021/06/01 07:07:55;;;;;;;5.13;1.38;;;12.90;99.90;;;;;;5076767;28;20424;-63
2021/06/01 07:10:24;;;;;;;3.17;1.52;;;13.00;99.90;;;;;;5076508;28;20063;-63
2021/06/01 07:12:52;;;;;;;3.85;1.60;;;13.20;99.90;;;;;;5076868;28;20451;-63
2021/06/01 07:15:26;;;;;;;4.20;1.33;;;13.30;99.90;;;;;;5059052;28;20057;-63
2021/06/01 07:17:56;;;;;;;5.35;1.90;;;13.40;99.90;;;;;;5078046;28;20046;-63
2021/06/01 07:20:26;;;;;;;4.03;1.65;;;13.50;99.90;;;;;;5077327;28;20016;-62
2021/06/01 07:22:54;;;;;;;3.63;1.30;;;13.70;99.90;;;;;;5077796;28;20025;-63
2021/06/01 07:25:23;;;;;;;4.60;1.45;;;13.80;99.90;;;;;;5077287;28;20028;-64
2021/06/01 07:27:51;;;;;;;4.32;1.95;;;13.90;99.90;;;;;;5077690;28;20021;-63
2021/06/01 07:30:19;;;;;;;3.33;1.40;;;14.00;99.90;;;;;;5077246;28;20020;-63
2021/06/01 07:32:46;;;;;;;4.40;1.35;;;14.20;99.90;;;;;;5077720;28;20313;-65
2021/06/01 07:35:15;;;;;;;2.42;1.30;;;14.30;99.90;;;;;;5042312;28;20025;-63
2021/06/01 07:37:43;;;;;;;2.22;1.27;;;14.40;99.90;;;;;;5058337;28;20020;-64
2021/06/01 07:40:11;;;;;;;2.92;1.38;;;14.60;99.90;;;;;;5076267;28;20020;-65
2021/06/01 07:42:39;;;;;;;3.20;1.20;;;14.80;99.90;;;;;;5076349;28;20417;-63
2021/06/01 07:45:28;;;;;;;3.65;1.55;;;15.00;99.90;;;;;;5076014;28;20340;-62
2021/06/01 07:47:56;;;;;;;2.47;1.35;;;15.10;99.90;;;;;;5076532;28;20025;-63
2021/06/01 07:50:23;;;;;;;3.80;1.30;;;15.30;99.90;;;;;;5076157;28;20025;-63
2021/06/01 07:52:52;;;;;;;7.45;1.60;;;15.40;99.90;;;;;;5076434;28;20039;-62
2021/06/01 07:55:19;;;;;;;2.60;1.30;;;15.60;99.90;;;;;;5075949;28;20024;-62
2021/06/01 07:57:47;;;;;;;1.88;1.30;;;15.70;99.90;;;;;;5076596;28;20148;-65
2021/06/01 08:00:15;;;;;;;4.80;1.02;;;15.90;99.90;;;;;;5077034;28;20024;-62
2021/06/01 08:02:43;;;;;;;2.40;0.90;;;16.00;99.90;;;;;;5091197;28;20040;-64
2021/06/01 08:05:11;;;;;;;2.42;1.30;;;16.20;99.60;;;;;;5097082;28;20031;-62
2021/06/01 08:07:39;;;;;;;5.15;1.40;;;16.30;99.50;;;;;;5079410;28;20047;-63
2021/06/01 08:10:07;;;;;;;5.28;1.33;;;16.50;98.60;;;;;;5079552;28;20097;-65
2021/06/01 08:12:35;;;;;;;4.05;1.35;;;16.70;97.70;;;;;;5097425;28;20020;-63
2021/06/01 08:15:05;;;;;;;3.13;1.73;;;16.80;97.50;;;;;;5097041;28;20028;-63
2021/06/01 08:17:36;;;;;;;3.97;1.50;;;16.90;97.00;;;;;;5078609;28;20027;-65
2021/06/01 08:20:14;;;;;;;5.22;1.45;;;17.10;95.60;;;;;;5096147;28;20017;-63
2021/06/01 08:22:43;;;;;;;2.95;1.40;;;17.20;95.90;;;;;;5096589;28;20077;-66
2021/06/01 08:25:11;;;;;;;1.92;1.20;;;17.30;95.80;;;;;;5078313;28;20071;-63
2021/06/01 08:27:39;;;;;;;2.38;1.35;;;17.40;95.80;;;;;;5096172;28;20111;-62
2021/06/01 08:30:09;;;;;;;2.33;1.30;;;17.50;95.20;;;;;;5095965;28;20049;-63
2021/06/01 08:32:37;;;;;;;2.35;1.30;;;17.60;94.80;;;;;;5095928;28;20028;-64
2021/06/01 08:35:05;;;;;;;13.82;1.80;;;17.70;93.20;;;;;;5096485;28;20408;-63
2021/06/01 08:37:33;;;;;;;5.80;1.60;;;17.90;91.70;;;;;;5096335;28;20024;-64
2021/06/01 08:40:01;;;;;;;2.85;1.30;;;18.00;91.00;;;;;;5099603;28;20028;-63
2021/06/01 08:42:29;;;;;;;2.58;1.48;;;18.10;90.70;;;;;;5100365;28;20031;-64
2021/06/01 08:44:58;;;;;;;3.35;1.30;;;18.20;90.30;;;;;;5100390;28;20446;-62
2021/06/01 08:47:26;;;;;;;2.85;1.80;;;18.30;90.10;;;;;;5100537;28;20113;-62
2021/06/01 08:49:53;;;;;;;3.20;1.52;;;18.40;89.60;;;;;;5100408;28;20048;-65
2021/06/01 08:52:22;;;;;;;3.70;1.42;;;18.50;89.80;;;;;;5100357;28;20024;-64
2021/06/01 08:54:50;;;;;;;1.83;1.02;;;18.60;86.60;;;;;;5100235;28;20082;-62
2021/06/01 08:57:19;;;;;;;5.25;1.30;;;18.70;83.10;;;;;;5100276;28;20099;-61
2021/06/01 08:59:47;;;;;;;4.00;1.50;;;18.80;79.10;;;;;;5099189;28;20139;-62
2021/06/01 09:02:21;;;;;;;2.47;1.30;;;19.00;75.80;;;;;;5099041;28;20114;-62
2021/06/01 09:04:56;;;;;;;2.38;1.52;;;19.10;74.00;;;;;;5099022;28;20115;-62
2021/06/01 09:07:39;;;;;;;3.37;1.30;;;19.10;71.20;;;;;;5099124;28;20028;-62
2021/06/01 09:21:46;;;;;;;6.43;1.40;;;19.60;67.90;;;;;;5099977;28;20358;-62
2021/06/01 09:24:15;;;;;;;3.78;1.60;;;19.70;67.30;;;;;;5099377;28;20472;-62
2021/06/01 09:27:14;;;;;;;5.85;1.55;;;19.80;67.60;;;;;;5081710;28;20074;-62
2021/06/01 09:29:49;;;;;;;2.53;1.10;;;19.90;66.50;;;;;;5099406;28;20024;-62
2021/06/01 09:32:17;;;;;;;3.83;1.10;;;20.10;64.30;;;;;;5099492;28;20027;-62
2021/06/01 09:34:48;;;;;;;4.28;1.45;;;20.10;61.30;;;;;;5099678;28;20055;-62
2021/06/01 09:37:21;;;;;;;3.17;1.60;;;20.20;62.60;;;;;;5099314;28;20063;-63
2021/06/01 09:40:20;;;;;;;3.97;1.50;;;20.30;63.10;;;;;;5099391;28;20119;-63
2021/06/01 09:42:50;;;;;;;4.25;1.60;;;20.40;63.40;;;;;;5098621;28;20406;-64
2021/06/01 09:45:24;;;;;;;3.08;1.50;;;20.50;63.00;;;;;;5098421;28;20032;-65
2021/06/01 09:47:58;;;;;;;2.30;1.23;;;20.70;62.80;;;;;;5098600;28;20074;-65
2021/06/01 09:53:03;;;;;;;2.25;1.40;;;20.80;60.50;;;;;;5098420;28;20020;-65
2021/06/01 09:55:36;;;;;;;2.22;1.20;;;21.00;60.40;;;;;;5098014;28;20111;-63
2021/06/01 09:58:16;;;;;;;2.17;1.35;;;21.10;61.00;;;;;;5098162;28;20097;-63
2021/06/01 10:00:47;;;;;;;3.05;1.70;;;21.30;60.10;;;;;;5098701;28;20507;-68
2021/06/01 10:03:17;;;;;;;8.90;1.38;;;21.50;60.60;;;;;;5098917;28;20036;-65
2021/06/01 10:05:51;;;;;;;5.35;1.30;;;21.60;59.70;;;;;;5099056;28;20327;-68
2021/06/01 10:08:21;;;;;;;3.95;2.10;;;21.70;59.50;;;;;;5080726;28;20035;-64
2021/06/01 10:10:52;;;;;;;44.97;25.02;;;21.90;59.50;;;;;;5098707;28;20420;-66
2021/06/01 10:13:21;;;;;;;129.55;60.97;;;21.90;59.90;;;;;;5098850;28;20032;-65
2021/06/01 10:15:52;;;;;;;6.20;3.63;;;22.10;59.20;;;;;;5098562;28;20442;-62
2021/06/01 10:18:21;;;;;;;9.13;4.78;;;22.20;59.60;;;;;;5098063;28;20020;-62
2021/06/01 10:20:51;;;;;;;17.27;9.52;;;22.20;59.70;;;;;;5097626;28;20035;-63
2021/06/01 10:23:29;;;;;;;48.40;23.92;;;22.30;59.80;;;;;;5097669;28;20024;-62
2021/06/01 10:25:59;;;;;;;21.58;9.48;;;22.40;59.40;;;;;;5081120;28;20360;-62
2021/06/01 10:28:36;;;;;;;30.92;15.18;;;22.40;59.80;;;;;;5097334;28;20443;-62
2021/06/01 10:31:10;;;;;;;22.48;12.77;;;22.40;58.30;;;;;;5097407;28;20058;-63
2021/06/01 10:33:52;;;;;;;6.03;2.88;;;22.40;58.40;;;;;;5097610;28;20024;-63
2021/06/01 10:50:33;;;;;;;2.15;1.58;;;22.70;56.70;;;;;;5098688;28;20031;-63
2021/06/01 10:53:05;;;;;;;4.85;1.85;;;22.70;56.70;;;;;;5098000;28;20028;-66
2021/06/01 10:56:01;;;;;;;6.78;2.50;;;22.70;57.50;;;;;;5097898;28;20032;-63
2021/06/01 10:58:40;;;;;;;7.47;2.43;;;22.70;57.70;;;;;;5097584;28;20029;-64
2021/06/01 11:04:13;;;;;;;5.65;2.75;;;22.70;56.80;;;;;;5097054;28;20089;-63
2021/06/01 11:09:45;;;;;;;3.58;1.60;;;22.80;57.70;;;;;;5093577;28;20028;-63
2021/06/01 11:12:26;;;;;;;6.40;2.08;;;22.90;56.80;;;;;;5096812;28;20099;-64
2021/06/01 11:14:58;;;;;;;3.75;1.83;;;22.80;55.10;;;;;;5096619;28;20059;-64
2021/06/01 11:17:43;;;;;;;3.30;1.80;;;22.90;56.00;;;;;;5096670;28;20027;-64
2021/06/01 11:20:37;;;;;;;4.37;2.17;;;22.90;55.60;;;;;;5097097;28;20024;-64
2021/06/01 11:23:21;;;;;;;4.03;1.83;;;23.00;56.10;;;;;;5098243;28;20499;-63
2021/06/01 11:34:00;;;;;;;4.40;1.70;;;23.00;56.50;;;;;;5097916;28;20484;-62
2021/06/01 11:36:37;;;;;;;2.97;1.60;;;23.00;54.40;;;;;;5097208;28;20024;-62
2021/06/01 11:39:27;;;;;;;3.05;1.50;;;23.00;54.00;;;;;;5096491;28;20024;-62
2021/06/01 11:44:41;;;;;;;5.88;1.77;;;23.00;54.70;;;;;;5096617;28;20472;-62
2021/06/01 11:47:29;;;;;;;2.67;1.50;;;22.90;55.30;;;;;;5097023;28;20032;-62
2021/06/01 11:52:58;;;;;;;3.90;1.83;;;22.70;55.40;;;;;;5096859;28;20077;-62
2021/06/01 11:55:25;;;;;;;5.43;1.90;;;22.70;55.90;;;;;;5096130;28;20064;-62
2021/06/01 12:04:12;;;;;;;3.53;1.85;;;23.00;56.40;;;;;;5077051;28;20447;-62
2021/06/01 12:20:52;;;;;;;5.68;1.70;;;23.30;54.30;;;;;;5079755;28;20369;-63
2021/06/01 12:23:37;;;;;;;2.40;1.60;;;23.40;55.30;;;;;;5061943;28;20328;-63
2021/06/01 12:26:09;;;;;;;6.88;1.60;;;23.40;56.00;;;;;;5079641;28;20100;-63
2021/06/01 12:32:09;;;;;;;2.22;1.50;;;23.50;54.40;;;;;;5080125;28;20048;-63
2021/06/01 12:46:06;;;;;;;6.15;1.45;;;23.60;54.20;;;;;;5080568;28;20025;-63
2021/06/01 13:37:41;;;;;;;17.70;2.55;;;24.60;53.30;;;;;;5099337;28;20027;-63
2021/06/01 13:40:19;;;;;;;36.80;3.47;;;24.70;52.50;;;;;;5098275;28;20039;-63
2021/06/01 13:46:04;;;;;;;7.43;2.08;;;25.00;52.30;;;;;;5098383;28;20110;-63
2021/06/01 13:56:28;;;;;;;5.78;1.90;;;25.10;52.90;;;;;;5098220;28;20020;-63
2021/06/01 13:59:14;;;;;;;10.02;2.33;;;25.10;52.80;;;;;;5098521;28;20024;-63
2021/06/01 14:10:19;;;;;;;3.63;1.90;;;24.70;53.20;;;;;;5099359;28;20446;-63
2021/06/01 14:21:23;;;;;;;3.55;1.85;;;24.70;54.60;;;;;;5098189;28;20089;-62
2021/06/01 14:32:13;;;;;;;6.78;2.35;;;25.10;52.50;;;;;;5097582;28;20020;-63
2021/06/01 15:09:06;;;;;;;12.73;3.05;;;25.40;52.80;;;;;;5096918;28;20031;-62
2021/06/01 16:14:33;;;;;;;4.70;2.35;;;26.00;52.10;;;;;;5101057;28;20032;-63
2021/06/01 16:22:54;;;;;;;8.70;5.20;;;26.00;52.50;;;;;;5100308;28;20357;-63
2021/06/01 17:03:07;;;;;;;4.28;2.72;;;25.60;53.40;;;;;;5100797;28;20103;-63
2021/06/01 17:06:45;;;;;;;6.18;2.25;;;29.10;47.10;;;;;;5099266;28;20024;-63
2021/06/01 17:12:02;;;;;;;3.92;2.30;;;29.50;46.20;;;;;;5099299;28;20015;-63
2021/06/01 17:14:29;;;;;;;4.45;2.15;;;29.40;46.10;;;;;;5099266;28;20458;-62
2021/06/01 17:17:02;;;;;;;5.65;2.40;;;29.30;46.20;;;;;;5099710;28;20028;-62
2021/06/01 17:22:27;;;;;;;4.10;2.05;;;28.90;46.00;;;;;;5083622;28;20099;-62
2021/06/01 17:35:58;;;;;;;10.95;2.85;;;26.90;50.20;;;;;;5099142;28;20070;-62
2021/06/01 17:38:26;;;;;;;11.00;3.22;;;26.50;50.90;;;;;;5098530;28;20420;-62
2021/06/01 17:40:57;;;;;;;3.80;2.42;;;26.20;51.60;;;;;;5098585;28;20032;-63
2021/06/01 17:43:37;;;;;;;5.15;2.85;;;25.80;52.20;;;;;;5098613;28;20031;-62
2021/06/01 17:46:09;;;;;;;10.45;3.03;;;25.60;53.10;;;;;;5098522;28;20028;-61
2021/06/01 17:48:50;;;;;;;4.63;2.80;;;25.30;53.60;;;;;;5098824;28;20073;-62
2021/06/01 17:51:19;;;;;;;6.18;2.70;;;25.10;54.70;;;;;;5098319;28;20026;-62
2021/06/01 17:53:48;;;;;;;5.40;2.85;;;25.00;54.50;;;;;;5098698;28;20035;-63
2021/06/01 17:56:21;;;;;;;5.20;2.58;;;25.00;54.80;;;;;;5098973;28;20036;-63
2021/06/01 17:58:50;;;;;;;3.90;2.75;;;24.90;54.90;;;;;;5099679;28;20435;-63
2021/06/01 18:01:19;;;;;;;3.72;2.92;;;24.90;55.40;;;;;;5099179;28;20054;-63
2021/06/01 18:03:55;;;;;;;5.20;2.50;;;24.90;55.90;;;;;;5099002;28;20032;-62
2021/06/01 18:06:38;;;;;;;5.28;2.35;;;24.80;56.80;;;;;;5099263;28;20036;-63
2021/06/01 18:11:57;;;;;;;5.72;2.50;;;24.60;57.70;;;;;;5098624;28;20020;-63
2021/06/01 18:37:02;;;;;;;4.93;2.78;;;22.40;70.00;;;;;;5098833;28;20036;-62
2021/06/01 18:42:46;;;;;;;7.38;2.63;;;22.00;71.20;;;;;;5083993;28;20031;-62
2021/06/01 19:24:14;;;;;;;5.50;2.72;;;18.90;91.00;;;;;;5098148;28;20039;-62
2021/06/01 19:49:57;;;;;;;5.28;3.13;;;17.70;99.20;;;;;;5081904;28;20415;-63
2021/06/01 19:52:27;;;;;;;6.43;2.70;;;17.60;99.90;;;;;;5096503;28;20016;-63
2021/06/01 19:54:56;;;;;;;4.43;2.63;;;17.40;99.90;;;;;;5097596;28;20051;-62
2021/06/01 19:57:25;;;;;;;5.07;2.45;;;17.30;99.90;;;;;;5097400;28;20028;-62
2021/06/01 19:59:54;;;;;;;5.80;3.05;;;17.30;99.90;;;;;;5097206;28;20418;-62
2021/06/01 20:02:24;;;;;;;5.70;3.13;;;17.20;99.90;;;;;;5096821;28;20377;-62
2021/06/01 20:04:54;;;;;;;5.82;2.40;;;17.10;99.90;;;;;;5098044;28;20277;-62
2021/06/01 20:07:23;;;;;;;6.43;3.30;;;17.00;99.90;;;;;;5097462;28;20016;-62
2021/06/01 20:09:51;;;;;;;8.35;3.88;;;16.90;99.90;;;;;;5097845;28;20020;-62
2021/06/01 20:12:20;;;;;;;4.00;2.97;;;16.80;99.90;;;;;;5096943;28;20020;-62
2021/06/01 20:14:49;;;;;;;4.32;2.85;;;16.70;99.90;;;;;;5061953;28;20020;-62
2021/06/01 20:17:34;;;;;;;10.40;3.47;;;16.60;99.90;;;;;;5078223;28;20362;-62